sensor_id;sensor_type;location;lat;lon;timestamp;P1;durP1;ratioP1;P2;durP2;ratioP2
62915;SDS011;49010;51.230;-2.306;2022-11-14T00:03:27;22.45;;;14.23;;
62915;SDS011;49010;51.230;-2.306;2022-11-14T00:07:08;24.75;;;14.27;;
62915;SDS011;49010;51.230;-2.306;2022-11-14T00:10:50;23.55;;;14.00;;
62915;SDS011;49010;51.230;-2.306;2022-11-14T00:14:32;23.02;;;14.43;;
62915;SDS011;49010;51.230;-2.306;2022-11-14T00:18:14;23.35;;;13.60;;
62915;SDS011;49010;51.230;-2.306;2022-11-14T00:21:57;22.60;;;14.00;;
62915;SDS011;49010;51.230;-2.306;2022-11-14T00:25:40;23.33;;;13.25;;
62915;SDS011;49010;51.230;-2.306;2022-11-14T00:29:23;24.75;;;14.48;;
62915;SDS011;49010;51.230;-2.306;2022-11-14T00:33:05;22.40;;;14.55;;
62915;SDS011;49010;51.230;-2.306;2022-11-14T00:36:47;21.55;;;13.32;;
62915;SDS011;49010;51.230;-2.306;2022-11-14T00:40:29;21.52;;;14.75;;
62915;SDS011;49010;51.230;-2.306;2022-11-14T00:44:10;23.88;;;14.07;;
62915;SDS011;49010;51.230;-2.306;2022-11-14T00:47:52;23.02;;;15.02;;
62915;SDS011;49010;51.230;-2.306;2022-11-14T00:51:34;22.70;;;14.05;;
62915;SDS011;49010;51.230;-2.306;2022-11-14T00:55:16;21.65;;;13.57;;
62915;SDS011;49010;51.230;-2.306;2022-11-14T00:58:58;20.13;;;12.38;;
62915;SDS011;49010;51.230;-2.306;2022-11-14T01:02:40;20.42;;;12.52;;
62915;SDS011;49010;51.230;-2.306;2022-11-14T01:06:22;19.98;;;11.80;;
62915;SDS011;49010;51.230;-2.306;2022-11-14T01:10:04;21.83;;;13.52;;
62915;SDS011;49010;51.230;-2.306;2022-11-14T01:13:47;20.75;;;12.93;;
62915;SDS011;49010;51.230;-2.306;2022-11-14T01:17:29;24.25;;;13.65;;
62915;SDS011;49010;51.230;-2.306;2022-11-14T01:21:11;27.38;;;14.00;;
62915;SDS011;49010;51.230;-2.306;2022-11-14T01:24:54;26.27;;;14.48;;
62915;SDS011;49010;51.230;-2.306;2022-11-14T01:28:38;20.77;;;13.00;;
62915;SDS011;49010;51.230;-2.306;2022-11-14T01:32:21;24.80;;;14.80;;
62915;SDS011;49010;51.230;-2.306;2022-11-14T01:36:03;26.05;;;14.25;;
62915;SDS011;49010;51.230;-2.306;2022-11-14T01:39:46;23.33;;;13.23;;
62915;SDS011;49010;51.230;-2.306;2022-11-14T01:43:34;21.90;;;13.18;;
62915;SDS011;49010;51.230;-2.306;2022-11-14T01:47:21;19.83;;;12.82;;
62915;SDS011;49010;51.230;-2.306;2022-11-14T01:51:26;19.00;;;12.90;;
62915;SDS011;49010;51.230;-2.306;2022-11-14T01:55:18;22.10;;;13.30;;
62915;SDS011;49010;51.230;-2.306;2022-11-14T01:59:06;20.08;;;12.98;;
62915;SDS011;49010;51.230;-2.306;2022-11-14T02:02:52;21.30;;;13.23;;
62915;SDS011;49010;51.230;-2.306;2022-11-14T02:06:34;23.63;;;13.88;;
62915;SDS011;49010;51.230;-2.306;2022-11-14T02:10:18;21.33;;;13.10;;
62915;SDS011;49010;51.230;-2.306;2022-11-14T02:14:01;20.75;;;13.13;;
62915;SDS011;49010;51.230;-2.306;2022-11-14T02:17:44;26.00;;;15.70;;
62915;SDS011;49010;51.230;-2.306;2022-11-14T02:21:26;24.75;;;14.43;;
62915;SDS011;49010;51.230;-2.306;2022-11-14T02:25:09;23.15;;;14.50;;
62915;SDS011;49010;51.230;-2.306;2022-11-14T02:28:55;23.60;;;14.38;;
62915;SDS011;49010;51.230;-2.306;2022-11-14T02:32:37;26.08;;;15.38;;
62915;SDS011;49010;51.230;-2.306;2022-11-14T02:36:39;21.65;;;13.35;;
62915;SDS011;49010;51.230;-2.306;2022-11-14T02:40:21;23.88;;;14.82;;
62915;SDS011;49010;51.230;-2.306;2022-11-14T02:44:03;22.75;;;14.50;;
62915;SDS011;49010;51.230;-2.306;2022-11-14T02:47:45;22.88;;;15.05;;
62915;SDS011;49010;51.230;-2.306;2022-11-14T02:51:27;22.58;;;13.95;;
62915;SDS011;49010;51.230;-2.306;2022-11-14T02:55:09;28.40;;;15.15;;
62915;SDS011;49010;51.230;-2.306;2022-11-14T02:58:51;24.83;;;14.48;;
62915;SDS011;49010;51.230;-2.306;2022-11-14T03:02:33;25.58;;;15.65;;
62915;SDS011;49010;51.230;-2.306;2022-11-14T03:06:15;23.27;;;14.35;;
62915;SDS011;49010;51.230;-2.306;2022-11-14T03:09:56;25.17;;;15.68;;
62915;SDS011;49010;51.230;-2.306;2022-11-14T03:13:38;21.23;;;13.45;;
62915;SDS011;49010;51.230;-2.306;2022-11-14T03:17:20;27.90;;;14.02;;
62915;SDS011;49010;51.230;-2.306;2022-11-14T03:21:05;24.58;;;14.55;;
62915;SDS011;49010;51.230;-2.306;2022-11-14T03:24:47;28.30;;;16.00;;
62915;SDS011;49010;51.230;-2.306;2022-11-14T03:28:29;28.80;;;15.90;;
62915;SDS011;49010;51.230;-2.306;2022-11-14T03:32:12;26.13;;;16.20;;
62915;SDS011;49010;51.230;-2.306;2022-11-14T03:35:54;24.67;;;15.95;;
62915;SDS011;49010;51.230;-2.306;2022-11-14T03:39:35;24.05;;;13.88;;
62915;SDS011;49010;51.230;-2.306;2022-11-14T03:43:18;27.10;;;16.38;;
62915;SDS011;49010;51.230;-2.306;2022-11-14T03:47:01;25.27;;;15.45;;
62915;SDS011;49010;51.230;-2.306;2022-11-14T03:50:43;25.65;;;15.70;;
62915;SDS011;49010;51.230;-2.306;2022-11-14T03:54:25;27.40;;;15.50;;
62915;SDS011;49010;51.230;-2.306;2022-11-14T03:58:07;22.67;;;15.30;;
62915;SDS011;49010;51.230;-2.306;2022-11-14T04:01:49;25.23;;;15.52;;
62915;SDS011;49010;51.230;-2.306;2022-11-14T04:05:31;25.10;;;14.57;;
62915;SDS011;49010;51.230;-2.306;2022-11-14T04:09:13;27.60;;;15.02;;
62915;SDS011;49010;51.230;-2.306;2022-11-14T04:12:55;25.17;;;14.18;;
62915;SDS011;49010;51.230;-2.306;2022-11-14T04:16:37;29.00;;;13.88;;
62915;SDS011;49010;51.230;-2.306;2022-11-14T04:20:18;24.38;;;14.25;;
62915;SDS011;49010;51.230;-2.306;2022-11-14T04:24:00;22.92;;;14.80;;
62915;SDS011;49010;51.230;-2.306;2022-11-14T04:27:48;24.23;;;13.57;;
62915;SDS011;49010;51.230;-2.306;2022-11-14T04:31:30;20.08;;;12.75;;
62915;SDS011;49010;51.230;-2.306;2022-11-14T04:35:12;23.23;;;14.00;;
62915;SDS011;49010;51.230;-2.306;2022-11-14T04:38:54;23.23;;;12.68;;
62915;SDS011;49010;51.230;-2.306;2022-11-14T04:42:35;21.70;;;13.27;;
62915;SDS011;49010;51.230;-2.306;2022-11-14T04:46:17;20.05;;;13.02;;
62915;SDS011;49010;51.230;-2.306;2022-11-14T04:49:59;17.55;;;11.18;;
62915;SDS011;49010;51.230;-2.306;2022-11-14T04:53:41;16.80;;;12.43;;
62915;SDS011;49010;51.230;-2.306;2022-11-14T04:57:23;25.45;;;13.18;;
62915;SDS011;49010;51.230;-2.306;2022-11-14T05:01:08;24.02;;;12.50;;
62915;SDS011;49010;51.230;-2.306;2022-11-14T05:04:51;21.93;;;11.97;;
62915;SDS011;49010;51.230;-2.306;2022-11-14T05:08:33;19.92;;;11.57;;
62915;SDS011;49010;51.230;-2.306;2022-11-14T05:12:15;19.08;;;11.63;;
62915;SDS011;49010;51.230;-2.306;2022-11-14T05:15:57;19.00;;;11.57;;
62915;SDS011;49010;51.230;-2.306;2022-11-14T05:19:40;19.23;;;11.43;;
62915;SDS011;49010;51.230;-2.306;2022-11-14T05:23:22;20.25;;;11.38;;
62915;SDS011;49010;51.230;-2.306;2022-11-14T05:27:04;17.35;;;10.07;;
62915;SDS011;49010;51.230;-2.306;2022-11-14T05:30:46;16.98;;;10.93;;
62915;SDS011;49010;51.230;-2.306;2022-11-14T05:34:28;15.10;;;10.63;;
62915;SDS011;49010;51.230;-2.306;2022-11-14T05:38:10;16.55;;;10.35;;
62915;SDS011;49010;51.230;-2.306;2022-11-14T05:41:51;14.40;;;9.82;;
62915;SDS011;49010;51.230;-2.306;2022-11-14T05:45:33;15.55;;;11.00;;
62915;SDS011;49010;51.230;-2.306;2022-11-14T05:49:15;16.88;;;10.52;;
62915;SDS011;49010;51.230;-2.306;2022-11-14T05:53:02;17.48;;;11.30;;
62915;SDS011;49010;51.230;-2.306;2022-11-14T05:56:44;20.75;;;12.13;;
62915;SDS011;49010;51.230;-2.306;2022-11-14T06:00:26;16.83;;;11.77;;
62915;SDS011;49010;51.230;-2.306;2022-11-14T06:04:08;16.27;;;10.70;;
62915;SDS011;49010;51.230;-2.306;2022-11-14T06:07:53;19.00;;;11.55;;
62915;SDS011;49010;51.230;-2.306;2022-11-14T06:11:39;21.35;;;11.52;;
62915;SDS011;49010;51.230;-2.306;2022-11-14T06:15:21;15.88;;;11.40;;
62915;SDS011;49010;51.230;-2.306;2022-11-14T06:19:02;19.30;;;11.50;;
62915;SDS011;49010;51.230;-2.306;2022-11-14T06:22:45;22.63;;;12.15;;
62915;SDS011;49010;51.230;-2.306;2022-11-14T06:26:28;19.15;;;11.48;;
62915;SDS011;49010;51.230;-2.306;2022-11-14T06:30:11;18.33;;;10.80;;
62915;SDS011;49010;51.230;-2.306;2022-11-14T06:33:53;19.17;;;12.32;;
62915;SDS011;49010;51.230;-2.306;2022-11-14T06:37:36;22.50;;;13.07;;
62915;SDS011;49010;51.230;-2.306;2022-11-14T06:41:19;21.42;;;12.85;;
62915;SDS011;49010;51.230;-2.306;2022-11-14T06:45:02;21.98;;;12.88;;
62915;SDS011;49010;51.230;-2.306;2022-11-14T06:48:44;25.25;;;13.82;;
62915;SDS011;49010;51.230;-2.306;2022-11-14T06:52:28;26.15;;;14.00;;
62915;SDS011;49010;51.230;-2.306;2022-11-14T06:56:12;21.02;;;12.27;;
62915;SDS011;49010;51.230;-2.306;2022-11-14T06:59:56;23.98;;;13.27;;
62915;SDS011;49010;51.230;-2.306;2022-11-14T07:03:38;18.63;;;12.27;;
62915;SDS011;49010;51.230;-2.306;2022-11-14T07:07:21;20.15;;;12.15;;
62915;SDS011;49010;51.230;-2.306;2022-11-14T07:11:03;21.75;;;12.75;;
62915;SDS011;49010;51.230;-2.306;2022-11-14T07:14:49;18.58;;;11.65;;
62915;SDS011;49010;51.230;-2.306;2022-11-14T07:18:32;19.67;;;13.10;;
62915;SDS011;49010;51.230;-2.306;2022-11-14T07:22:14;18.92;;;12.30;;
62915;SDS011;49010;51.230;-2.306;2022-11-14T07:26:03;18.45;;;12.57;;
62915;SDS011;49010;51.230;-2.306;2022-11-14T07:29:49;20.13;;;12.38;;
62915;SDS011;49010;51.230;-2.306;2022-11-14T07:33:32;16.42;;;11.77;;
62915;SDS011;49010;51.230;-2.306;2022-11-14T07:37:21;19.20;;;14.00;;
62915;SDS011;49010;51.230;-2.306;2022-11-14T07:41:09;20.05;;;12.93;;
62915;SDS011;49010;51.230;-2.306;2022-11-14T07:44:53;19.67;;;12.50;;
62915;SDS011;49010;51.230;-2.306;2022-11-14T07:48:35;24.67;;;13.65;;
62915;SDS011;49010;51.230;-2.306;2022-11-14T07:52:17;19.88;;;13.05;;
62915;SDS011;49010;51.230;-2.306;2022-11-14T07:56:06;24.58;;;12.85;;
62915;SDS011;49010;51.230;-2.306;2022-11-14T07:59:49;22.38;;;12.63;;
62915;SDS011;49010;51.230;-2.306;2022-11-14T08:03:31;22.17;;;14.45;;
62915;SDS011;49010;51.230;-2.306;2022-11-14T08:07:14;25.17;;;14.82;;
62915;SDS011;49010;51.230;-2.306;2022-11-14T08:10:56;28.08;;;15.10;;
62915;SDS011;49010;51.230;-2.306;2022-11-14T08:14:38;21.48;;;14.15;;
62915;SDS011;49010;51.230;-2.306;2022-11-14T08:18:21;23.25;;;14.35;;
62915;SDS011;49010;51.230;-2.306;2022-11-14T08:22:03;21.98;;;13.10;;
62915;SDS011;49010;51.230;-2.306;2022-11-14T08:25:47;18.35;;;12.93;;
62915;SDS011;49010;51.230;-2.306;2022-11-14T08:29:29;21.08;;;13.02;;
62915;SDS011;49010;51.230;-2.306;2022-11-14T08:33:11;25.52;;;13.50;;
62915;SDS011;49010;51.230;-2.306;2022-11-14T08:36:53;19.55;;;12.40;;
62915;SDS011;49010;51.230;-2.306;2022-11-14T08:40:37;19.30;;;11.98;;
62915;SDS011;49010;51.230;-2.306;2022-11-14T08:44:19;20.08;;;11.25;;
62915;SDS011;49010;51.230;-2.306;2022-11-14T08:48:01;30.15;;;12.38;;
62915;SDS011;49010;51.230;-2.306;2022-11-14T08:51:43;24.50;;;13.13;;
62915;SDS011;49010;51.230;-2.306;2022-11-14T08:55:26;19.63;;;12.10;;
62915;SDS011;49010;51.230;-2.306;2022-11-14T08:59:08;16.17;;;11.00;;
62915;SDS011;49010;51.230;-2.306;2022-11-14T09:02:50;19.20;;;11.52;;
62915;SDS011;49010;51.230;-2.306;2022-11-14T09:06:32;18.77;;;12.40;;
62915;SDS011;49010;51.230;-2.306;2022-11-14T09:10:14;16.42;;;10.30;;
62915;SDS011;49010;51.230;-2.306;2022-11-14T09:13:56;15.68;;;10.70;;
62915;SDS011;49010;51.230;-2.306;2022-11-14T09:17:39;21.77;;;10.93;;
62915;SDS011;49010;51.230;-2.306;2022-11-14T09:21:21;19.92;;;11.50;;
62915;SDS011;49010;51.230;-2.306;2022-11-14T09:25:03;21.85;;;10.43;;
62915;SDS011;49010;51.230;-2.306;2022-11-14T09:28:45;15.38;;;10.23;;
62915;SDS011;49010;51.230;-2.306;2022-11-14T09:32:27;17.23;;;10.50;;
62915;SDS011;49010;51.230;-2.306;2022-11-14T09:36:10;17.55;;;10.75;;
62915;SDS011;49010;51.230;-2.306;2022-11-14T09:39:56;18.75;;;10.32;;
62915;SDS011;49010;51.230;-2.306;2022-11-14T09:47:22;20.27;;;10.23;;
62915;SDS011;49010;51.230;-2.306;2022-11-14T09:51:21;16.10;;;9.27;;
62915;SDS011;49010;51.230;-2.306;2022-11-14T09:59:22;14.02;;;8.23;;
62915;SDS011;49010;51.230;-2.306;2022-11-14T10:07:39;13.13;;;7.38;;
62915;SDS011;49010;51.230;-2.306;2022-11-14T10:16:03;11.18;;;6.32;;
62915;SDS011;49010;51.230;-2.306;2022-11-14T10:19:59;8.57;;;5.95;;
62915;SDS011;49010;51.230;-2.306;2022-11-14T10:40:05;9.50;;;4.47;;
62915;SDS011;49010;51.230;-2.306;2022-11-14T10:43:58;6.13;;;4.43;;
62915;SDS011;49010;51.230;-2.306;2022-11-14T10:47:47;8.45;;;3.85;;
62915;SDS011;49010;51.230;-2.306;2022-11-14T10:51:34;9.50;;;3.95;;
62915;SDS011;49010;51.230;-2.306;2022-11-14T10:55:23;9.70;;;3.72;;
62915;SDS011;49010;51.230;-2.306;2022-11-14T10:59:25;7.82;;;3.70;;
62915;SDS011;49010;51.230;-2.306;2022-11-14T11:03:08;6.25;;;3.78;;
62915;SDS011;49010;51.230;-2.306;2022-11-14T11:06:51;5.45;;;4.03;;
62915;SDS011;49010;51.230;-2.306;2022-11-14T11:10:38;8.27;;;4.38;;
62915;SDS011;49010;51.230;-2.306;2022-11-14T11:14:46;5.60;;;3.03;;
62915;SDS011;49010;51.230;-2.306;2022-11-14T11:19:14;7.53;;;3.58;;
62915;SDS011;49010;51.230;-2.306;2022-11-14T11:27:02;5.70;;;2.78;;
62915;SDS011;49010;51.230;-2.306;2022-11-14T11:31:04;7.97;;;3.13;;
62915;SDS011;49010;51.230;-2.306;2022-11-14T11:34:51;6.68;;;3.42;;
62915;SDS011;49010;51.230;-2.306;2022-11-14T11:38:34;5.45;;;2.88;;
62915;SDS011;49010;51.230;-2.306;2022-11-14T11:42:17;5.53;;;3.17;;
62915;SDS011;49010;51.230;-2.306;2022-11-14T11:50:32;6.57;;;3.55;;
62915;SDS011;49010;51.230;-2.306;2022-11-14T11:54:18;5.93;;;3.55;;
62915;SDS011;49010;51.230;-2.306;2022-11-14T11:58:05;5.03;;;3.35;;
62915;SDS011;49010;51.230;-2.306;2022-11-14T12:01:58;6.55;;;3.05;;
62915;SDS011;49010;51.230;-2.306;2022-11-14T12:09:46;6.03;;;3.30;;
62915;SDS011;49010;51.230;-2.306;2022-11-14T12:18:03;10.07;;;5.63;;
62915;SDS011;49010;51.230;-2.306;2022-11-14T12:30:18;8.05;;;4.85;;
62915;SDS011;49010;51.230;-2.306;2022-11-14T12:34:06;10.10;;;5.35;;
62915;SDS011;49010;51.230;-2.306;2022-11-14T12:38:12;12.82;;;6.63;;
62915;SDS011;49010;51.230;-2.306;2022-11-14T12:42:06;9.32;;;5.25;;
62915;SDS011;49010;51.230;-2.306;2022-11-14T12:45:54;6.80;;;4.00;;
62915;SDS011;49010;51.230;-2.306;2022-11-14T12:57:21;8.88;;;4.88;;
62915;SDS011;49010;51.230;-2.306;2022-11-14T13:09:09;12.90;;;7.45;;
62915;SDS011;49010;51.230;-2.306;2022-11-14T13:21:16;5.60;;;3.45;;
62915;SDS011;49010;51.230;-2.306;2022-11-14T13:25:24;7.68;;;3.90;;
62915;SDS011;49010;51.230;-2.306;2022-11-14T13:29:06;7.53;;;2.90;;
62915;SDS011;49010;51.230;-2.306;2022-11-14T13:32:51;6.93;;;3.65;;
62915;SDS011;49010;51.230;-2.306;2022-11-14T13:36:39;7.22;;;3.45;;
62915;SDS011;49010;51.230;-2.306;2022-11-14T13:48:41;5.03;;;3.30;;
62915;SDS011;49010;51.230;-2.306;2022-11-14T13:52:45;4.75;;;2.75;;
62915;SDS011;49010;51.230;-2.306;2022-11-14T14:16:51;4.55;;;1.92;;
62915;SDS011;49010;51.230;-2.306;2022-11-14T14:24:29;5.25;;;2.15;;
62915;SDS011;49010;51.230;-2.306;2022-11-14T14:32:29;4.30;;;2.00;;
62915;SDS011;49010;51.230;-2.306;2022-11-14T14:36:18;7.00;;;2.10;;
62915;SDS011;49010;51.230;-2.306;2022-11-14T14:40:06;5.00;;;2.45;;
62915;SDS011;49010;51.230;-2.306;2022-11-14T14:44:02;4.38;;;2.33;;
62915;SDS011;49010;51.230;-2.306;2022-11-14T14:47:44;4.85;;;2.25;;
62915;SDS011;49010;51.230;-2.306;2022-11-14T14:51:31;3.30;;;2.22;;
62915;SDS011;49010;51.230;-2.306;2022-11-14T14:55:28;3.25;;;2.30;;
62915;SDS011;49010;51.230;-2.306;2022-11-14T14:59:22;4.72;;;2.22;;
62915;SDS011;49010;51.230;-2.306;2022-11-14T15:03:05;3.90;;;1.42;;
62915;SDS011;49010;51.230;-2.306;2022-11-14T15:06:51;2.03;;;1.00;;
62915;SDS011;49010;51.230;-2.306;2022-11-14T15:10:33;3.33;;;1.15;;
62915;SDS011;49010;51.230;-2.306;2022-11-14T15:14:23;2.65;;;0.75;;
62915;SDS011;49010;51.230;-2.306;2022-11-14T15:18:07;3.70;;;0.70;;
62915;SDS011;49010;51.230;-2.306;2022-11-14T15:26:00;3.17;;;0.85;;
62915;SDS011;49010;51.230;-2.306;2022-11-14T15:29:47;1.67;;;0.57;;
62915;SDS011;49010;51.230;-2.306;2022-11-14T15:33:33;3.35;;;0.50;;
62915;SDS011;49010;51.230;-2.306;2022-11-14T15:44:59;2.88;;;0.60;;
62915;SDS011;49010;51.230;-2.306;2022-11-14T15:48:41;1.20;;;0.43;;
62915;SDS011;49010;51.230;-2.306;2022-11-14T15:52:27;1.02;;;0.60;;
62915;SDS011;49010;51.230;-2.306;2022-11-14T15:56:15;1.25;;;0.52;;
62915;SDS011;49010;51.230;-2.306;2022-11-14T15:59:59;2.65;;;0.90;;
62915;SDS011;49010;51.230;-2.306;2022-11-14T16:03:44;2.08;;;0.70;;
62915;SDS011;49010;51.230;-2.306;2022-11-14T16:07:31;1.85;;;0.93;;
62915;SDS011;49010;51.230;-2.306;2022-11-14T16:11:13;0.98;;;0.57;;
62915;SDS011;49010;51.230;-2.306;2022-11-14T16:14:55;2.15;;;0.75;;
62915;SDS011;49010;51.230;-2.306;2022-11-14T16:18:37;1.58;;;0.80;;
62915;SDS011;49010;51.230;-2.306;2022-11-14T16:22:19;1.98;;;1.00;;
62915;SDS011;49010;51.230;-2.306;2022-11-14T16:26:01;4.55;;;1.30;;
62915;SDS011;49010;51.230;-2.306;2022-11-14T16:29:42;2.20;;;1.10;;
62915;SDS011;49010;51.230;-2.306;2022-11-14T16:33:24;4.25;;;1.17;;
62915;SDS011;49010;51.230;-2.306;2022-11-14T16:37:08;6.68;;;1.02;;
62915;SDS011;49010;51.230;-2.306;2022-11-14T16:40:53;5.35;;;1.30;;
62915;SDS011;49010;51.230;-2.306;2022-11-14T16:44:35;5.20;;;1.60;;
62915;SDS011;49010;51.230;-2.306;2022-11-14T16:48:24;2.47;;;1.25;;
62915;SDS011;49010;51.230;-2.306;2022-11-14T16:52:05;2.05;;;1.27;;
62915;SDS011;49010;51.230;-2.306;2022-11-14T16:55:50;3.88;;;2.15;;
62915;SDS011;49010;51.230;-2.306;2022-11-14T16:59:32;5.53;;;1.83;;
62915;SDS011;49010;51.230;-2.306;2022-11-14T17:03:14;5.80;;;1.98;;
62915;SDS011;49010;51.230;-2.306;2022-11-14T17:06:56;3.65;;;1.60;;
62915;SDS011;49010;51.230;-2.306;2022-11-14T17:10:39;3.90;;;1.25;;
62915;SDS011;49010;51.230;-2.306;2022-11-14T17:14:21;2.83;;;1.45;;
62915;SDS011;49010;51.230;-2.306;2022-11-14T17:18:04;5.03;;;1.70;;
62915;SDS011;49010;51.230;-2.306;2022-11-14T17:21:47;3.17;;;1.88;;
62915;SDS011;49010;51.230;-2.306;2022-11-14T17:25:29;3.88;;;1.45;;
62915;SDS011;49010;51.230;-2.306;2022-11-14T17:29:11;2.70;;;1.30;;
62915;SDS011;49010;51.230;-2.306;2022-11-14T17:32:53;2.13;;;1.42;;
62915;SDS011;49010;51.230;-2.306;2022-11-14T17:36:36;3.10;;;1.50;;
62915;SDS011;49010;51.230;-2.306;2022-11-14T17:40:18;1.52;;;1.00;;
62915;SDS011;49010;51.230;-2.306;2022-11-14T17:44:00;4.82;;;1.23;;
62915;SDS011;49010;51.230;-2.306;2022-11-14T17:47:43;2.85;;;1.27;;
62915;SDS011;49010;51.230;-2.306;2022-11-14T17:51:25;2.40;;;1.40;;
62915;SDS011;49010;51.230;-2.306;2022-11-14T17:55:07;5.70;;;1.70;;
62915;SDS011;49010;51.230;-2.306;2022-11-14T17:58:50;3.50;;;2.10;;
62915;SDS011;49010;51.230;-2.306;2022-11-14T18:02:33;2.17;;;1.65;;
62915;SDS011;49010;51.230;-2.306;2022-11-14T18:06:16;3.25;;;1.98;;
62915;SDS011;49010;51.230;-2.306;2022-11-14T18:09:59;2.40;;;1.70;;
62915;SDS011;49010;51.230;-2.306;2022-11-14T18:13:41;5.82;;;2.85;;
62915;SDS011;49010;51.230;-2.306;2022-11-14T18:17:23;4.93;;;3.33;;
62915;SDS011;49010;51.230;-2.306;2022-11-14T18:21:08;7.95;;;3.42;;
62915;SDS011;49010;51.230;-2.306;2022-11-14T18:24:53;5.88;;;3.13;;
62915;SDS011;49010;51.230;-2.306;2022-11-14T18:28:35;5.13;;;2.80;;
62915;SDS011;49010;51.230;-2.306;2022-11-14T18:32:17;8.55;;;3.05;;
62915;SDS011;49010;51.230;-2.306;2022-11-14T18:35:59;5.45;;;2.72;;
62915;SDS011;49010;51.230;-2.306;2022-11-14T18:39:41;4.65;;;2.38;;
62915;SDS011;49010;51.230;-2.306;2022-11-14T18:43:23;6.22;;;2.65;;
62915;SDS011;49010;51.230;-2.306;2022-11-14T18:47:05;6.50;;;2.70;;
62915;SDS011;49010;51.230;-2.306;2022-11-14T18:50:47;4.13;;;2.05;;
62915;SDS011;49010;51.230;-2.306;2022-11-14T18:54:29;5.57;;;2.05;;
62915;SDS011;49010;51.230;-2.306;2022-11-14T18:58:12;5.15;;;1.88;;
62915;SDS011;49010;51.230;-2.306;2022-11-14T19:01:54;4.70;;;2.25;;
62915;SDS011;49010;51.230;-2.306;2022-11-14T19:05:36;5.88;;;2.22;;
62915;SDS011;49010;51.230;-2.306;2022-11-14T19:09:18;6.97;;;2.00;;
62915;SDS011;49010;51.230;-2.306;2022-11-14T19:13:03;6.18;;;1.88;;
62915;SDS011;49010;51.230;-2.306;2022-11-14T19:16:45;4.63;;;1.30;;
62915;SDS011;49010;51.230;-2.306;2022-11-14T19:20:27;6.90;;;2.33;;
62915;SDS011;49010;51.230;-2.306;2022-11-14T19:24:09;5.80;;;2.17;;
62915;SDS011;49010;51.230;-2.306;2022-11-14T19:27:51;7.57;;;1.83;;
62915;SDS011;49010;51.230;-2.306;2022-11-14T19:31:33;4.15;;;1.75;;
62915;SDS011;49010;51.230;-2.306;2022-11-14T19:35:15;6.22;;;1.75;;
62915;SDS011;49010;51.230;-2.306;2022-11-14T19:39:00;6.38;;;1.60;;
62915;SDS011;49010;51.230;-2.306;2022-11-14T19:42:43;6.97;;;2.20;;
62915;SDS011;49010;51.230;-2.306;2022-11-14T19:46:24;2.85;;;1.48;;
62915;SDS011;49010;51.230;-2.306;2022-11-14T19:50:09;6.70;;;1.75;;
62915;SDS011;49010;51.230;-2.306;2022-11-14T19:53:51;5.95;;;1.65;;
62915;SDS011;49010;51.230;-2.306;2022-11-14T19:57:34;3.08;;;1.40;;
62915;SDS011;49010;51.230;-2.306;2022-11-14T20:01:17;7.05;;;2.30;;
62915;SDS011;49010;51.230;-2.306;2022-11-14T20:05:00;4.93;;;1.85;;
62915;SDS011;49010;51.230;-2.306;2022-11-14T20:08:42;6.88;;;1.83;;
62915;SDS011;49010;51.230;-2.306;2022-11-14T20:12:24;3.88;;;1.80;;
62915;SDS011;49010;51.230;-2.306;2022-11-14T20:19:55;5.75;;;1.42;;
62915;SDS011;49010;51.230;-2.306;2022-11-14T20:23:37;5.05;;;1.48;;
62915;SDS011;49010;51.230;-2.306;2022-11-14T20:27:19;4.72;;;0.98;;
62915;SDS011;49010;51.230;-2.306;2022-11-14T20:31:01;10.25;;;1.95;;
62915;SDS011;49010;51.230;-2.306;2022-11-14T20:34:48;6.47;;;1.30;;
62915;SDS011;49010;51.230;-2.306;2022-11-14T20:38:30;4.00;;;1.20;;
62915;SDS011;49010;51.230;-2.306;2022-11-14T20:42:12;4.55;;;0.73;;
62915;SDS011;49010;51.230;-2.306;2022-11-14T20:46:01;4.47;;;0.70;;
62915;SDS011;49010;51.230;-2.306;2022-11-14T20:49:47;2.50;;;0.93;;
62915;SDS011;49010;51.230;-2.306;2022-11-14T20:53:29;3.95;;;1.00;;
62915;SDS011;49010;51.230;-2.306;2022-11-14T20:57:12;4.25;;;1.30;;
62915;SDS011;49010;51.230;-2.306;2022-11-14T21:00:54;4.00;;;0.80;;
62915;SDS011;49010;51.230;-2.306;2022-11-14T21:04:36;2.42;;;0.90;;
62915;SDS011;49010;51.230;-2.306;2022-11-14T21:08:18;3.58;;;1.05;;
62915;SDS011;49010;51.230;-2.306;2022-11-14T21:12:00;6.47;;;1.52;;
62915;SDS011;49010;51.230;-2.306;2022-11-14T21:15:42;5.90;;;1.15;;
62915;SDS011;49010;51.230;-2.306;2022-11-14T21:19:24;9.35;;;1.17;;
62915;SDS011;49010;51.230;-2.306;2022-11-14T21:23:06;5.07;;;1.45;;
62915;SDS011;49010;51.230;-2.306;2022-11-14T21:26:48;5.57;;;1.63;;
62915;SDS011;49010;51.230;-2.306;2022-11-14T21:30:30;4.57;;;1.33;;
62915;SDS011;49010;51.230;-2.306;2022-11-14T21:34:13;4.70;;;1.60;;
62915;SDS011;49010;51.230;-2.306;2022-11-14T21:37:58;5.57;;;1.23;;
62915;SDS011;49010;51.230;-2.306;2022-11-14T21:41:40;12.68;;;2.00;;
62915;SDS011;49010;51.230;-2.306;2022-11-14T21:45:22;8.70;;;1.45;;
62915;SDS011;49010;51.230;-2.306;2022-11-14T21:49:04;5.40;;;2.08;;
62915;SDS011;49010;51.230;-2.306;2022-11-14T21:52:46;8.35;;;1.23;;
62915;SDS011;49010;51.230;-2.306;2022-11-14T21:56:28;7.68;;;1.27;;
62915;SDS011;49010;51.230;-2.306;2022-11-14T22:00:12;3.58;;;1.10;;
62915;SDS011;49010;51.230;-2.306;2022-11-14T22:03:54;8.82;;;1.65;;
62915;SDS011;49010;51.230;-2.306;2022-11-14T22:07:54;6.97;;;1.45;;
62915;SDS011;49010;51.230;-2.306;2022-11-14T22:11:36;5.70;;;1.30;;
62915;SDS011;49010;51.230;-2.306;2022-11-14T22:15:19;5.13;;;1.20;;
62915;SDS011;49010;51.230;-2.306;2022-11-14T22:19:01;6.55;;;1.45;;
62915;SDS011;49010;51.230;-2.306;2022-11-14T22:22:46;7.55;;;1.65;;
62915;SDS011;49010;51.230;-2.306;2022-11-14T22:26:27;5.60;;;1.67;;
62915;SDS011;49010;51.230;-2.306;2022-11-14T22:30:09;4.45;;;1.42;;
62915;SDS011;49010;51.230;-2.306;2022-11-14T22:33:52;8.50;;;1.58;;
62915;SDS011;49010;51.230;-2.306;2022-11-14T22:37:34;11.15;;;1.60;;
62915;SDS011;49010;51.230;-2.306;2022-11-14T22:41:20;5.70;;;1.30;;
62915;SDS011;49010;51.230;-2.306;2022-11-14T22:45:13;6.03;;;1.67;;
62915;SDS011;49010;51.230;-2.306;2022-11-14T22:48:55;3.70;;;1.10;;
62915;SDS011;49010;51.230;-2.306;2022-11-14T22:52:36;8.93;;;2.05;;
62915;SDS011;49010;51.230;-2.306;2022-11-14T22:56:19;9.95;;;2.38;;
62915;SDS011;49010;51.230;-2.306;2022-11-14T23:00:03;10.60;;;2.13;;
62915;SDS011;49010;51.230;-2.306;2022-11-14T23:03:45;4.68;;;1.10;;
62915;SDS011;49010;51.230;-2.306;2022-11-14T23:07:28;4.05;;;1.05;;
62915;SDS011;49010;51.230;-2.306;2022-11-14T23:11:11;5.63;;;1.30;;
62915;SDS011;49010;51.230;-2.306;2022-11-14T23:15:01;7.80;;;1.60;;
62915;SDS011;49010;51.230;-2.306;2022-11-14T23:18:43;8.60;;;2.35;;
62915;SDS011;49010;51.230;-2.306;2022-11-14T23:22:26;9.80;;;1.60;;
62915;SDS011;49010;51.230;-2.306;2022-11-14T23:26:09;9.50;;;1.75;;
62915;SDS011;49010;51.230;-2.306;2022-11-14T23:29:55;6.55;;;1.52;;
62915;SDS011;49010;51.230;-2.306;2022-11-14T23:33:37;6.25;;;1.42;;
62915;SDS011;49010;51.230;-2.306;2022-11-14T23:37:20;9.40;;;1.80;;
62915;SDS011;49010;51.230;-2.306;2022-11-14T23:41:02;9.07;;;1.67;;
62915;SDS011;49010;51.230;-2.306;2022-11-14T23:44:44;10.55;;;1.65;;
62915;SDS011;49010;51.230;-2.306;2022-11-14T23:48:26;12.23;;;1.98;;
62915;SDS011;49010;51.230;-2.306;2022-11-14T23:52:07;4.35;;;1.30;;
62915;SDS011;49010;51.230;-2.306;2022-11-14T23:55:53;8.52;;;1.80;;
62915;SDS011;49010;51.230;-2.306;2022-11-14T23:59:36;6.20;;;1.10;;
